Aérodrome :
LOGIN :

S'inscrire | Disclaimer

   EN    FR    IT 

 










Légende :    VFR   VFR Marginal   IFR   IFR Intensif   IFR Très Intensif
Visi : 
Plafond : 
>= 8 km
>= 3000ft
5 à 8 km
1000 à 3000 ft
1500m à 5 km
500 à 1000 ft
800 à 1500m
200 à 500 ft
< 800m
< 200 ft
Symboles :   Orages  Brouillard  Fortes neiges  Fortes précipitations  Vent > 20 kt
SIGMETs :   Divers  Orages  Givrage  Turbulence  Onde Orograph.  Cendres Volcan.







- Altitude de l'aérodrome : 463 ft
- Code IATA : QAS


DAOI - Chlef Int.

DERNIER METAR :
  • 222000Z 06006KT 9999 -TS BKN026 FEW030CB 08/06 Q1006

METARs EXPIRÉS :
  • 221900Z 02003KT 9999 -TS BKN026 FEW030CB 08/06 Q1006
  • 221800Z 02003KT 9999 SCT026 08/06 Q1006

TAF TAF DAOI
Valide du 22 à 18h jusqu'au 23 à 18h UTC


221700Z 2218/2318 VRB02KT 9999 SCT023
PROB30
TEMPO 2303/2308 4000 BR SCT010
BECMG 2309/2312 31010KT
Pas de NOTAMs connus pour ce terrain.
1 SIGMET publié pour la FIR Alger (DAAA) :
 
Orages noyés dans la masse
DAAA SIGMET 4 VALID 221700/222100 DAMM
DAAA ALGER FIR EMBD TS OBS N OF LINE N3646 E00820 - N3642 E00020 TOP FL220 MOV SE 20KT WKN=



MET'MAP, la Météo Aéronautique d'un coup d'oeil ! - Copyright ORBIFLY Décembre 2007 - Disclaimer

ORBIFLY MET'MAP TEAM :

Programmation & Développement : Alexandra Zaïnal
Conception & Développement : Baudouin d'Aumeries
Co-Programmation & Développement : Marc-Olivier Méhu
Soutien technique & logistique : Manuel Goepfert

Contact : metmap@orbifly.com




SOURCES & CREDITS :

   NOAA